Time;durP1;ratioP1;P1;durP2;ratioP2;P2;SDS_P1;SDS_P2;PMS_P1;PMS_P2;Temp;Humidity;BMP_temperature;BMP_pressure;BME280_temperature;BME280_humidity;BME280_pressure;Samples;Min_cycle;Max_cycle;Signal;HPM_P1;HPM_P2
2021/12/29 00:00:55;;;;;;;11.50;10.90;;;;;;;-4.41;100.00;100560.84;4971981;28;20111;-68
2021/12/29 00:03:20;;;;;;;12.07;11.43;;;;;;;-4.32;100.00;100555.22;4974669;28;20147;-72
2021/12/29 00:05:46;;;;;;;11.45;10.85;;;;;;;-4.36;100.00;100557.13;4956645;28;20393;-69
2021/12/29 00:08:11;;;;;;;11.05;10.45;;;;;;;-4.35;100.00;100558.78;4973309;28;20062;-68
2021/12/29 00:10:37;;;;;;;11.77;11.10;;;;;;;-4.34;100.00;100552.69;4973084;28;20106;-69
2021/12/29 00:13:04;;;;;;;11.27;10.68;;;;;;;-4.37;100.00;100558.03;4973322;28;20149;-68
2021/12/29 00:15:31;;;;;;;11.48;10.88;;;;;;;-4.33;100.00;100569.06;4973112;28;20499;-71
2021/12/29 00:17:57;;;;;;;11.95;11.25;;;;;;;-4.36;100.00;100567.47;4960030;28;20018;-68
2021/12/29 00:20:28;;;;;;;10.73;10.23;;;;;;;-4.37;100.00;100565.81;4956160;28;20493;-70
2021/12/29 00:22:58;;;;;;;11.18;10.57;;;;;;;-4.43;100.00;100576.47;4957052;28;20035;-68
2021/12/29 00:25:23;;;;;;;11.55;10.95;;;;;;;-4.49;100.00;100569.00;4973205;28;20027;-72
2021/12/29 00:27:49;;;;;;;12.07;11.45;;;;;;;-4.45;100.00;100579.16;4973104;28;20019;-68
2021/12/29 00:30:15;;;;;;;11.60;11.00;;;;;;;-4.47;100.00;100575.81;4973077;28;20027;-72
2021/12/29 00:32:40;;;;;;;13.95;13.07;;;;;;;-4.47;100.00;100580.97;4972455;28;20023;-72
2021/12/29 00:35:08;;;;;;;11.63;11.02;;;;;;;-4.51;100.00;100576.03;4972821;28;20126;-69
2021/12/29 00:37:34;;;;;;;11.88;11.27;;;;;;;-4.47;100.00;100567.19;4972861;28;20034;-69
2021/12/29 00:39:59;;;;;;;11.57;10.98;;;;;;;-4.49;100.00;100564.66;4972777;28;20038;-70
2021/12/29 00:42:25;;;;;;;11.73;11.13;;;;;;;-4.43;100.00;100567.88;4973178;28;20020;-72
2021/12/29 00:44:51;;;;;;;12.05;11.38;;;;;;;-4.48;100.00;100562.91;4972567;28;20469;-71
2021/12/29 00:47:17;;;;;;;12.02;11.32;;;;;;;-4.43;100.00;100565.28;4972614;28;20086;-69
2021/12/29 00:49:43;;;;;;;11.95;11.25;;;;;;;-4.48;100.00;100562.91;4972379;28;20495;-68
2021/12/29 00:52:09;;;;;;;11.48;10.88;;;;;;;-4.40;100.00;100570.31;4972506;28;20034;-67
2021/12/29 00:54:40;;;;;;;11.65;11.05;;;;;;;-4.41;100.00;100572.03;4972598;28;20106;-68
2021/12/29 00:57:06;;;;;;;10.98;10.38;;;;;;;-4.46;100.00;100569.72;4972724;28;20019;-67
2021/12/29 00:59:31;;;;;;;11.30;10.70;;;;;;;-4.40;100.00;100562.56;4972212;28;20042;-69
2021/12/29 01:01:57;;;;;;;10.90;10.30;;;;;;;-4.44;100.00;100556.69;4972444;28;20389;-70
2021/12/29 01:04:23;;;;;;;11.63;10.95;;;;;;;-4.43;100.00;100552.34;4972597;28;20113;-70
2021/12/29 01:06:49;;;;;;;11.05;10.48;;;;;;;-4.40;100.00;100559.97;4972690;28;20019;-67
2021/12/29 01:09:15;;;;;;;11.32;10.73;;;;;;;-4.37;100.00;100544.25;4972276;28;20046;-69
2021/12/29 01:11:40;;;;;;;11.48;10.85;;;;;;;-4.37;100.00;100545.09;4969872;28;20019;-71
2021/12/29 01:14:08;;;;;;;10.93;10.32;;;;;;;-4.39;100.00;100546.94;4972211;28;20066;-71
2021/12/29 01:19:12;;;;;;;10.20;9.70;;;;;;;-4.35;100.00;100555.34;4972392;28;20034;-68
2021/12/29 01:21:41;;;;;;;10.43;9.93;;;;;;;-4.41;100.00;100560.84;4972436;28;20049;-68
2021/12/29 01:24:07;;;;;;;10.23;9.73;;;;;;;-4.34;100.00;100563.03;4973561;28;20026;-71
2021/12/29 01:26:34;;;;;;;10.90;10.30;;;;;;;-4.44;100.00;100556.69;4972151;28;20029;-69
2021/12/29 01:28:59;;;;;;;10.65;10.13;;;;;;;-4.42;100.00;100552.25;4971979;28;20374;-68
2021/12/29 01:31:25;;;;;;;10.55;10.05;;;;;;;-4.42;100.00;100554.84;4972283;28;20073;-70
2021/12/29 01:33:50;;;;;;;10.75;10.15;;;;;;;-4.39;100.00;100557.28;4973137;28;20397;-68
2021/12/29 01:36:16;;;;;;;10.93;10.32;;;;;;;-4.35;100.00;100558.78;4971963;28;20027;-68
2021/12/29 01:38:41;;;;;;;10.60;10.00;;;;;;;-4.35;100.00;100556.19;4972158;28;20027;-69
2021/12/29 01:41:07;;;;;;;10.77;10.18;;;;;;;-4.43;100.00;100547.16;4971797;28;20015;-68
2021/12/29 01:43:32;;;;;;;10.23;9.73;;;;;;;-4.38;100.00;100547.75;4971957;28;20472;-67
2021/12/29 01:45:58;;;;;;;10.48;9.98;;;;;;;-4.37;100.00;100545.09;4975797;28;20473;-67
2021/12/29 01:48:23;;;;;;;10.93;10.32;;;;;;;-4.36;100.00;100543.34;4977301;28;20491;-71
2021/12/29 01:50:51;;;;;;;10.75;10.25;;;;;;;-4.36;100.00;100545.91;4975895;28;20170;-72
2021/12/29 01:53:24;;;;;;;10.63;10.02;;;;;;;-4.47;100.00;100551.66;4975686;28;20086;-69
2021/12/29 01:55:51;;;;;;;11.35;10.75;;;;;;;-4.39;100.00;100541.75;4975437;28;20496;-70
2021/12/29 01:58:18;;;;;;;11.13;10.52;;;;;;;-4.37;100.00;100544.25;4975872;28;20439;-68
2021/12/29 02:00:44;;;;;;;10.40;9.90;;;;;;;-4.40;100.00;100547.84;4975491;28;20026;-67
2021/12/29 02:03:09;;;;;;;10.45;9.95;;;;;;;-4.36;100.00;100546.75;4975728;28;20038;-68
2021/12/29 02:05:39;;;;;;;10.77;10.18;;;;;;;-4.35;100.00;100545.00;4975833;28;20389;-68
2021/12/29 02:08:05;;;;;;;11.23;10.63;;;;;;;-4.38;100.00;100540.00;4976083;28;20117;-69
2021/12/29 02:10:35;;;;;;;11.20;10.60;;;;;;;-4.41;100.00;100540.13;4975664;28;20090;-72
2021/12/29 02:13:01;;;;;;;9.98;9.48;;;;;;;-4.38;100.00;100535.66;4975315;28;20464;-67
2021/12/29 02:15:26;;;;;;;10.85;10.25;;;;;;;-4.30;100.00;100540.44;4975432;28;20019;-71
2021/12/29 02:17:53;;;;;;;10.55;10.05;;;;;;;-4.34;100.00;100541.50;4975311;28;20079;-66
2021/12/29 02:20:20;;;;;;;10.80;10.20;;;;;;;-4.42;100.00;100531.53;4975194;28;20027;-70
2021/12/29 02:22:49;;;;;;;10.25;9.75;;;;;;;-4.36;100.00;100535.56;4975231;28;20030;-66
2021/12/29 02:27:43;;;;;;;10.57;10.00;;;;;;;-4.33;100.00;100530.22;4975337;28;20023;-72
2021/12/29 02:30:08;;;;;;;10.98;10.38;;;;;;;-4.35;100.00;100519.94;4974895;28;20114;-68
2021/12/29 02:32:34;;;;;;;10.55;9.98;;;;;;;-4.39;100.00;100513.28;4975061;28;20186;-69
2021/12/29 02:34:59;;;;;;;11.48;10.80;;;;;;;-4.84;100.00;100514.72;4975144;28;20035;-68
2021/12/29 02:37:26;;;;;;;11.02;10.43;;;;;;;-4.65;100.00;100506.00;4974804;28;20030;-68
2021/12/29 02:39:52;;;;;;;10.80;10.30;;;;;;;-4.49;100.00;100506.88;4974835;28;20037;-69
2021/12/29 02:42:24;;;;;;;11.15;10.55;;;;;;;-4.42;100.00;100509.97;4976122;28;20023;-69
2021/12/29 02:44:51;;;;;;;10.43;9.93;;;;;;;-4.43;100.00;100513.50;4975023;28;20045;-70
2021/12/29 02:47:17;;;;;;;10.15;9.65;;;;;;;-4.43;100.00;100513.50;4975199;28;20117;-70
2021/12/29 02:49:45;;;;;;;11.60;10.95;;;;;;;-4.44;100.00;100517.84;4970585;28;20077;-70
2021/12/29 02:52:11;;;;;;;11.18;10.57;;;;;;;-4.49;100.00;100501.69;4962669;28;20049;-67
2021/12/29 02:54:37;;;;;;;10.60;10.00;;;;;;;-4.50;100.00;100500.03;4974657;28;20035;-68
2021/12/29 02:57:03;;;;;;;10.75;10.15;;;;;;;-4.49;100.00;100492.19;4974587;28;20047;-70
2021/12/29 02:59:28;;;;;;;10.60;10.10;;;;;;;-4.46;100.00;100497.22;4973260;28;20069;-69
2021/12/29 03:01:54;;;;;;;10.82;10.23;;;;;;;-4.48;100.00;100499.06;4974728;28;20035;-67
2021/12/29 03:04:20;;;;;;;10.23;9.73;;;;;;;-4.48;100.00;100495.59;4974372;28;20381;-68
2021/12/29 03:06:46;;;;;;;10.32;9.82;;;;;;;-4.48;100.00;100499.06;4974751;28;20536;-70
2021/12/29 03:09:13;;;;;;;10.98;10.38;;;;;;;-4.52;100.00;100491.50;4975590;28;20035;-71
2021/12/29 03:11:42;;;;;;;10.45;9.93;;;;;;;-4.52;100.00;100494.09;4974433;28;20030;-73
2021/12/29 03:14:08;;;;;;;10.63;10.02;;;;;;;-4.64;100.00;100497.31;4974493;28;20027;-72
2021/12/29 03:16:34;;;;;;;10.55;10.02;;;;;;;-4.43;100.00;100492.78;4974275;28;20465;-67
2021/12/29 03:19:02;;;;;;;11.40;10.80;;;;;;;-4.45;100.00;100503.22;4974036;28;20042;-71
2021/12/29 03:21:28;;;;;;;10.48;9.93;;;;;;;-4.36;100.00;100500.16;4973937;28;20137;-69
2021/12/29 03:23:54;;;;;;;10.80;10.20;;;;;;;-4.43;100.00;100495.38;4974122;28;20121;-70
2021/12/29 03:26:19;;;;;;;10.30;9.80;;;;;;;-4.42;100.00;100502.22;4974404;28;20170;-68
2021/12/29 03:28:45;;;;;;;10.20;9.70;;;;;;;-4.76;100.00;100493.63;4973952;28;20396;-66
2021/12/29 03:31:14;;;;;;;10.82;10.23;;;;;;;-4.80;100.00;100492.09;4974128;28;20110;-70
2021/12/29 03:33:41;;;;;;;11.50;10.90;;;;;;;-5.16;100.00;100494.75;4964098;28;20022;-70
2021/12/29 03:36:08;;;;;;;11.85;11.20;;;;;;;-4.76;100.00;100480.69;4973874;28;20030;-68
2021/12/29 03:38:36;;;;;;;11.75;11.15;;;;;;;-5.01;100.00;100479.31;4973999;28;20022;-71
2021/12/29 03:41:04;;;;;;;11.27;10.75;;;;;;;-5.08;100.00;100496.06;4973958;28;20034;-71
2021/12/29 03:43:32;;;;;;;12.10;11.40;;;;;;;-4.83;100.00;100495.69;4973837;28;20523;-69
2021/12/29 03:45:59;;;;;;;11.25;10.70;;;;;;;-4.79;100.00;100492.00;4973927;28;20038;-68
2021/12/29 03:48:27;;;;;;;11.63;11.02;;;;;;;-4.80;100.00;100495.50;4973600;28;20027;-66
2021/12/29 03:50:55;;;;;;;11.65;11.05;;;;;;;-4.93;100.00;100497.03;4973802;28;20461;-69
2021/12/29 03:53:21;;;;;;;12.23;11.60;;;;;;;-5.28;100.00;100506.56;4973351;28;20050;-70
2021/12/29 03:55:49;;;;;;;12.65;11.95;;;;;;;-5.37;100.00;100502.66;4973781;28;20029;-70
2021/12/29 03:58:16;;;;;;;12.35;11.75;;;;;;;-5.59;100.00;100512.34;4973964;28;20129;-67
2021/12/29 04:00:41;;;;;;;12.77;12.15;;;;;;;-5.59;100.00;100502.84;4973521;28;20475;-67
2021/12/29 04:03:07;;;;;;;12.60;12.00;;;;;;;-5.50;100.00;100500.75;4973503;28;20125;-71
2021/12/29 04:05:33;;;;;;;12.73;12.02;;;;;;;-5.54;100.00;100500.06;4973675;28;20259;-70
2021/12/29 04:07:59;;;;;;;13.77;13.00;;;;;;;-5.48;100.00;100488.59;4967790;28;20042;-69
2021/12/29 04:10:25;;;;;;;12.38;11.77;;;;;;;-5.48;100.00;100499.75;4964933;28;20042;-70
2021/12/29 04:12:52;;;;;;;13.18;12.45;;;;;;;-5.59;100.00;100491.66;4973213;28;20037;-68
2021/12/29 04:15:18;;;;;;;13.27;12.57;;;;;;;-5.59;100.00;100491.66;4973350;28;20034;-71
2021/12/29 04:17:45;;;;;;;13.48;12.77;;;;;;;-5.47;100.00;100482.50;4973084;28;20031;-72
2021/12/29 04:23:05;;;;;;;12.77;12.18;;;;;;;-5.76;100.00;100492.47;4973465;28;20551;-70
2021/12/29 04:25:35;;;;;;;13.88;13.07;;;;;;;-5.82;100.00;100495.34;4972915;28;20031;-69
2021/12/29 04:28:01;;;;;;;12.38;11.77;;;;;;;-5.53;100.00;100496.56;4973220;28;20075;-71
2021/12/29 04:30:27;;;;;;;12.73;12.05;;;;;;;-5.60;100.00;100492.59;4972868;28;20477;-71
2021/12/29 04:32:53;;;;;;;12.02;11.43;;;;;;;-5.61;100.00;100488.34;4973099;28;20023;-70
2021/12/29 04:35:20;;;;;;;12.23;11.63;;;;;;;-5.62;100.00;100489.25;4973048;28;20030;-72
2021/12/29 04:37:46;;;;;;;13.30;12.60;;;;;;;-5.53;100.00;100486.22;4972919;28;20126;-71
2021/12/29 04:40:12;;;;;;;12.77;12.07;;;;;;;-5.42;100.00;100486.56;4972651;28;20117;-67
2021/12/29 04:42:37;;;;;;;12.65;12.00;;;;;;;-5.48;100.00;100483.41;4972754;28;20033;-71
2021/12/29 04:45:03;;;;;;;12.52;11.93;;;;;;;-5.47;100.00;100490.25;4972572;28;20027;-70
2021/12/29 04:47:30;;;;;;;13.18;12.45;;;;;;;-5.48;100.00;100488.59;4972588;28;20069;-68
2021/12/29 04:50:00;;;;;;;12.13;11.52;;;;;;;-5.44;100.00;100496.09;4972614;28;20489;-68
2021/12/29 04:52:28;;;;;;;13.10;12.40;;;;;;;-5.43;100.00;100504.72;4972464;28;20494;-69
2021/12/29 04:54:54;;;;;;;12.55;11.95;;;;;;;-5.49;100.00;100500.69;4972641;28;20065;-69
2021/12/29 04:57:19;;;;;;;12.73;12.02;;;;;;;-5.42;100.00;100504.66;4959918;28;20452;-69
2021/12/29 04:59:45;;;;;;;12.85;12.15;;;;;;;-5.35;100.00;100508.59;4968793;28;20034;-69
2021/12/29 05:02:11;;;;;;;12.48;11.80;;;;;;;-5.28;100.00;100503.97;4972456;28;20397;-71
2021/12/29 05:04:45;;;;;;;11.85;11.25;;;;;;;-5.37;100.00;100513.00;4972697;28;20035;-70
2021/12/29 05:09:57;;;;;;;13.02;12.32;;;;;;;-5.42;100.00;100516.72;4971895;28;20173;-69
2021/12/29 05:12:23;;;;;;;13.43;12.73;;;;;;;-5.32;100.00;100515.38;4972461;28;20088;-69
2021/12/29 05:14:48;;;;;;;13.45;12.68;;;;;;;-5.36;100.00;100508.66;4973326;28;20420;-67
2021/12/29 05:17:13;;;;;;;12.80;12.13;;;;;;;-5.32;100.00;100511.03;4972253;28;20086;-71
2021/12/29 05:19:39;;;;;;;12.68;11.98;;;;;;;-5.47;100.00;100506.59;4971470;28;20090;-69
2021/12/29 05:22:04;;;;;;;12.30;11.65;;;;;;;-5.42;100.00;100503.81;4973520;28;20023;-69
2021/12/29 05:24:30;;;;;;;12.55;11.90;;;;;;;-5.50;100.00;100508.50;4973382;28;20465;-72
2021/12/29 05:26:56;;;;;;;12.60;11.95;;;;;;;-5.51;100.00;100511.97;4971951;28;20023;-70
2021/12/29 05:29:21;;;;;;;12.75;12.13;;;;;;;-5.36;100.00;100503.50;4972326;28;20035;-71
2021/12/29 05:31:47;;;;;;;12.80;12.10;;;;;;;-5.59;100.00;100508.00;4973377;28;20491;-69
2021/12/29 05:34:12;;;;;;;12.80;12.10;;;;;;;-5.68;100.00;100517.94;4973241;28;20019;-72
2021/12/29 05:36:38;;;;;;;12.98;12.27;;;;;;;-5.80;100.00;100515.94;4973350;28;20125;-69
2021/12/29 05:39:03;;;;;;;14.13;13.30;;;;;;;-5.77;100.00;100521.81;4971572;28;20389;-70
2021/12/29 05:41:29;;;;;;;12.48;11.88;;;;;;;-5.89;100.00;100528.38;4971845;28;20026;-68
2021/12/29 05:43:54;;;;;;;13.38;12.68;;;;;;;-5.81;100.00;100525.44;4971951;28;20027;-70
2021/12/29 05:46:20;;;;;;;13.15;12.45;;;;;;;-5.81;100.00;100524.59;4971789;28;20416;-70
2021/12/29 05:48:45;;;;;;;12.75;12.15;;;;;;;-5.87;100.00;100529.16;4971873;28;20019;-67
2021/12/29 05:51:12;;;;;;;12.98;12.27;;;;;;;-5.92;100.00;100528.56;4971887;28;20481;-70
2021/12/29 05:53:39;;;;;;;13.07;12.38;;;;;;;-5.68;100.00;100538.63;4958415;28;20051;-69
2021/12/29 05:56:05;;;;;;;13.05;12.35;;;;;;;-6.05;100.00;100540.34;4970054;28;20027;-73
2021/12/29 05:58:30;;;;;;;13.20;12.50;;;;;;;-5.96;100.00;100542.50;4973194;28;20027;-71
2021/12/29 06:00:56;;;;;;;13.85;13.10;;;;;;;-5.84;100.00;100551.41;4972965;28;20042;-70
2021/12/29 06:03:21;;;;;;;13.35;12.65;;;;;;;-5.90;100.00;100549.09;4971915;28;20473;-71
2021/12/29 06:05:47;;;;;;;14.40;13.60;;;;;;;-6.02;100.00;100555.72;4971912;28;20019;-68
2021/12/29 06:08:12;;;;;;;13.65;12.95;;;;;;;-5.98;100.00;100553.81;4972863;28;20031;-71
2021/12/29 06:10:38;;;;;;;15.57;14.68;;;;;;;-5.94;100.00;100551.03;4971420;28;20388;-67
2021/12/29 06:13:03;;;;;;;13.90;13.20;;;;;;;-5.89;100.00;100561.09;4971677;28;20186;-72
2021/12/29 06:15:29;;;;;;;15.23;14.32;;;;;;;-6.04;100.00;100556.66;4971441;28;20452;-69
2021/12/29 06:17:55;;;;;;;15.20;14.40;;;;;;;-5.97;100.00;100558.91;4971639;28;20389;-67
2021/12/29 06:20:20;;;;;;;14.18;13.48;;;;;;;-5.85;100.00;100557.50;4971526;28;20043;-71
2021/12/29 06:22:46;;;;;;;14.23;13.52;;;;;;;-5.85;100.00;100560.06;4972752;28;20019;-70
2021/12/29 06:25:14;;;;;;;14.30;13.50;;;;;;;-5.94;100.00;100556.19;4972926;28;20061;-71
2021/12/29 06:27:40;;;;;;;15.30;14.40;;;;;;;-5.87;100.00;100556.72;4971312;28;20106;-68
2021/12/29 06:30:08;;;;;;;13.57;12.88;;;;;;;-5.79;100.00;100552.06;4971715;28;20022;-70
2021/12/29 06:32:33;;;;;;;14.13;13.43;;;;;;;-5.98;100.00;100538.31;4974487;28;20023;-69
2021/12/29 06:34:59;;;;;;;13.43;12.73;;;;;;;-5.67;100.00;100556.63;4976182;28;20389;-71
2021/12/29 06:37:24;;;;;;;13.45;12.75;;;;;;;-5.58;100.00;100553.66;4974921;28;20033;-73
2021/12/29 06:39:50;;;;;;;12.70;12.10;;;;;;;-5.57;100.00;100544.97;4975153;28;20031;-72
2021/12/29 06:42:16;;;;;;;13.40;12.65;;;;;;;-5.38;100.00;100551.84;4974953;28;20031;-71
2021/12/29 06:44:43;;;;;;;15.15;14.20;;;;;;;-5.53;100.00;100560.31;4976117;28;20396;-70
2021/12/29 06:47:09;;;;;;;13.15;12.45;;;;;;;-5.40;100.00;100548.50;4974833;28;20039;-69
2021/12/29 06:49:35;;;;;;;15.32;14.30;;;;;;;-5.74;100.00;100547.50;4974927;28;20046;-72
2021/12/29 06:52:02;;;;;;;14.98;14.07;;;;;;;-5.61;100.00;100553.78;4974355;28;20174;-71
2021/12/29 06:54:28;;;;;;;13.82;13.13;;;;;;;-5.72;100.00;100557.78;4974716;28;20126;-68
2021/12/29 06:56:54;;;;;;;13.82;13.05;;;;;;;-5.29;100.00;100566.91;4974651;28;20492;-67
2021/12/29 06:59:19;;;;;;;13.07;12.38;;;;;;;-5.36;100.00;100558.63;4974776;28;20026;-71
2021/12/29 07:01:45;;;;;;;14.60;13.70;;;;;;;-5.17;100.00;100550.00;4975586;28;20031;-72
2021/12/29 07:04:10;;;;;;;15.30;14.30;;;;;;;-5.20;100.00;100544.97;4974033;28;20054;-69
2021/12/29 07:06:36;;;;;;;13.15;12.45;;;;;;;-5.30;100.00;100549.72;4959960;28;20082;-72
2021/12/29 07:09:01;;;;;;;12.52;11.90;;;;;;;-5.42;100.00;100547.75;4957703;28;20023;-70
2021/12/29 07:11:27;;;;;;;13.10;12.40;;;;;;;-5.17;100.00;100548.25;4971323;28;20031;-71
2021/12/29 07:13:52;;;;;;;14.43;13.52;;;;;;;-5.30;100.00;100544.56;4974329;28;20039;-71
2021/12/29 07:16:18;;;;;;;13.45;12.65;;;;;;;-5.08;100.00;100537.44;4972970;28;20045;-67
2021/12/29 07:18:44;;;;;;;12.93;12.23;;;;;;;-4.87;100.00;100542.47;4973981;28;20029;-72
2021/12/29 07:21:09;;;;;;;12.88;12.18;;;;;;;-5.30;100.00;100545.41;4974146;28;20114;-68
2021/12/29 07:23:34;;;;;;;12.52;11.85;;;;;;;-5.45;100.00;100540.97;4974355;28;20038;-68
2021/12/29 07:26:00;;;;;;;12.18;11.57;;;;;;;-5.14;100.00;100532.59;4974299;28;20039;-72
2021/12/29 07:28:25;;;;;;;13.30;12.57;;;;;;;-4.91;100.00;100535.78;4974460;28;20034;-70
2021/12/29 07:30:51;;;;;;;12.65;12.02;;;;;;;-5.04;100.00;100540.72;4971312;28;20027;-71
2021/12/29 07:33:16;;;;;;;12.50;11.88;;;;;;;-5.53;100.00;100537.06;4969848;28;20034;-71
2021/12/29 07:35:42;;;;;;;12.07;11.48;;;;;;;-5.42;100.00;100546.00;4974189;28;20396;-70
2021/12/29 07:38:07;;;;;;;12.63;11.98;;;;;;;-4.93;100.00;100537.59;4973965;28;20113;-69
2021/12/29 07:40:34;;;;;;;12.40;11.80;;;;;;;-5.40;100.00;100541.59;4973665;28;20489;-72
2021/12/29 07:43:01;;;;;;;13.80;13.00;;;;;;;-5.32;100.00;100536.88;4972764;28;20051;-71
2021/12/29 07:45:27;;;;;;;12.82;12.15;;;;;;;-5.16;100.00;100541.31;4973648;28;20476;-68
2021/12/29 07:47:54;;;;;;;12.82;12.13;;;;;;;-5.51;100.00;100524.91;4974021;28;20117;-72
2021/12/29 07:50:20;;;;;;;12.35;11.75;;;;;;;-5.33;100.00;100539.56;4973814;28;20030;-69
2021/12/29 07:52:48;;;;;;;13.07;12.38;;;;;;;-5.09;100.00;100532.34;4974455;28;20097;-71
2021/12/29 07:55:18;;;;;;;13.25;12.50;;;;;;;-5.31;100.00;100530.81;4976419;28;20481;-67
2021/12/29 07:57:45;;;;;;;13.40;12.68;;;;;;;-5.21;100.00;100536.38;4973528;28;20053;-73
2021/12/29 08:00:11;;;;;;;12.80;12.10;;;;;;;-5.21;100.00;100541.56;4960996;28;20043;-69
2021/12/29 08:02:37;;;;;;;12.80;12.10;;;;;;;-5.47;100.00;100540.22;4971183;28;20404;-71
2021/12/29 08:05:07;;;;;;;13.00;12.40;;;;;;;-5.40;100.00;100535.59;4973664;28;20118;-68
2021/12/29 08:07:33;;;;;;;14.52;13.68;;;;;;;-5.22;100.00;100536.44;4973665;28;20046;-68
2021/12/29 08:09:59;;;;;;;13.13;12.43;;;;;;;-5.19;100.00;100537.13;4974215;28;20031;-66
2021/12/29 08:12:25;;;;;;;13.90;13.13;;;;;;;-5.02;100.00;100531.13;4975214;28;20432;-70
2021/12/29 08:14:51;;;;;;;14.05;13.25;;;;;;;-4.92;100.00;100540.13;4975608;28;20462;-69
2021/12/29 08:17:17;;;;;;;12.98;12.27;;;;;;;-5.26;100.00;100548.69;4975854;28;20034;-72
2021/12/29 08:19:43;;;;;;;13.13;12.48;;;;;;;-4.94;100.00;100547.09;4974061;28;20065;-72
2021/12/29 08:22:09;;;;;;;13.75;12.98;;;;;;;-4.90;100.00;100548.66;4974697;28;20031;-69
2021/12/29 08:24:35;;;;;;;12.88;12.18;;;;;;;-5.03;100.00;100551.00;4976273;28;20031;-72
2021/12/29 08:27:00;;;;;;;13.13;12.45;;;;;;;-5.00;100.00;100537.91;4972360;28;20117;-71
2021/12/29 08:29:26;;;;;;;13.27;12.55;;;;;;;-5.07;100.00;100541.72;4973036;28;20117;-70
2021/12/29 08:31:51;;;;;;;13.05;12.35;;;;;;;-4.95;100.00;100529.91;4977210;28;20054;-67
2021/12/29 08:34:17;;;;;;;14.02;13.23;;;;;;;-4.96;100.00;100532.59;4979129;28;20023;-68
2021/12/29 08:36:42;;;;;;;12.90;12.20;;;;;;;-4.89;100.00;100532.22;4976698;28;20370;-68
2021/12/29 08:39:08;;;;;;;13.93;13.13;;;;;;;-4.91;100.00;100526.28;4972837;28;20035;-73
2021/12/29 08:41:34;;;;;;;13.63;12.85;;;;;;;-4.91;100.00;100518.53;4972767;28;20027;-69
2021/12/29 08:43:59;;;;;;;13.35;12.65;;;;;;;-4.80;100.00;100528.31;4972763;28;20114;-71
2021/12/29 08:46:25;;;;;;;13.75;12.95;;;;;;;-4.95;100.00;100529.91;4972409;28;20034;-72
2021/12/29 08:48:51;;;;;;;13.10;12.40;;;;;;;-4.56;100.00;100531.41;4972735;28;20027;-71
2021/12/29 08:51:18;;;;;;;12.13;11.52;;;;;;;-4.49;100.00;100528.41;4972736;28;20061;-72
2021/12/29 08:53:44;;;;;;;13.00;12.30;;;;;;;-4.64;100.00;100521.44;4972305;28;20094;-70
2021/12/29 08:56:09;;;;;;;12.30;11.70;;;;;;;-4.48;100.00;100522.34;4972483;28;20035;-70
2021/12/29 08:58:35;;;;;;;13.10;12.40;;;;;;;-4.49;100.00;100523.25;4972108;28;20118;-71
2021/12/29 09:01:01;;;;;;;12.52;11.93;;;;;;;-4.50;100.00;100521.56;4972453;28;20126;-73
2021/12/29 09:03:27;;;;;;;11.65;11.05;;;;;;;-4.44;100.00;100520.44;4972685;28;20504;-71
2021/12/29 09:05:53;;;;;;;12.55;11.88;;;;;;;-4.12;100.00;100516.13;4973735;28;20042;-72
2021/12/29 09:08:19;;;;;;;12.52;11.82;;;;;;;-3.79;100.00;100521.28;4972154;28;20385;-71
2021/12/29 09:10:44;;;;;;;13.15;12.35;;;;;;;-4.30;100.00;100510.19;4972557;28;20045;-68
2021/12/29 09:13:12;;;;;;;13.10;12.30;;;;;;;-3.97;100.00;100519.66;4971955;28;20504;-69
2021/12/29 09:15:38;;;;;;;11.65;11.05;;;;;;;-3.83;100.00;100517.16;4972166;28;20125;-72
2021/12/29 09:18:04;;;;;;;12.10;11.40;;;;;;;-3.79;100.00;100517.84;4972114;28;20031;-72
2021/12/29 09:20:32;;;;;;;11.40;10.80;;;;;;;-3.75;100.00;100520.16;4972088;28;20081;-67
2021/12/29 09:23:05;;;;;;;11.75;11.13;;;;;;;-3.94;100.00;100514.34;4972023;28;20060;-69
2021/12/29 09:25:31;;;;;;;12.32;11.63;;;;;;;-3.55;100.00;100518.25;4969462;28;20030;-71
2021/12/29 09:27:57;;;;;;;10.88;10.27;;;;;;;-3.78;100.00;100511.75;4972196;28;20023;-69
2021/12/29 09:30:28;;;;;;;11.25;10.65;;;;;;;-3.77;100.00;100511.66;4972528;28;20035;-70
2021/12/29 09:32:54;;;;;;;11.25;10.65;;;;;;;-3.91;100.00;100516.75;4972143;28;20023;-69
2021/12/29 09:35:21;;;;;;;11.70;11.10;;;;;;;-3.92;100.00;100521.09;4971800;28;20451;-69
2021/12/29 09:37:47;;;;;;;11.93;11.32;;;;;;;-3.82;100.00;100518.00;4971641;28;20027;-68
2021/12/29 09:40:14;;;;;;;12.85;12.10;;;;;;;-3.82;100.00;100513.66;4971585;28;20101;-68
2021/12/29 09:42:40;;;;;;;12.57;11.85;;;;;;;-3.81;100.00;100497.22;4971667;28;20036;-73
2021/12/29 09:45:07;;;;;;;12.30;11.60;;;;;;;-3.48;100.00;100512.63;4971752;28;20134;-69
2021/12/29 09:47:33;;;;;;;12.15;11.45;;;;;;;-3.75;100.00;100501.19;4971658;28;20026;-73
2021/12/29 09:49:59;;;;;;;12.13;11.43;;;;;;;-3.74;100.00;100488.19;4973062;28;20038;-68
2021/12/29 09:52:29;;;;;;;13.57;12.68;;;;;;;-3.66;100.00;100492.94;4970998;28;20393;-69
2021/12/29 09:54:56;;;;;;;11.40;10.80;;;;;;;-3.85;100.00;100485.31;4971525;28;20031;-71
2021/12/29 09:57:22;;;;;;;12.07;11.40;;;;;;;-3.63;100.00;100482.38;4971501;28;20508;-72
2021/12/29 09:59:48;;;;;;;11.60;11.00;;;;;;;-3.74;99.96;100477.81;4971486;28;20062;-71
2021/12/29 10:02:13;;;;;;;11.40;10.80;;;;;;;-3.65;99.10;100473.88;4971610;28;20499;-69
2021/12/29 10:04:39;;;;;;;11.82;11.23;;;;;;;-3.52;99.40;100474.84;4971779;28;20511;-74
2021/12/29 10:07:15;;;;;;;12.50;11.75;;;;;;;-3.54;99.33;100462.88;4974177;28;20113;-70
2021/12/29 10:09:41;;;;;;;11.50;10.90;;;;;;;-3.68;99.95;100446.34;4974959;28;20400;-71
2021/12/29 10:12:10;;;;;;;13.07;12.27;;;;;;;-3.85;100.00;100453.38;4975194;28;20047;-72
2021/12/29 10:14:36;;;;;;;12.70;11.90;;;;;;;-3.60;100.00;100448.50;4973797;28;20130;-71
2021/12/29 10:17:09;;;;;;;11.43;10.82;;;;;;;-3.51;100.00;100444.56;4975330;28;20043;-70
2021/12/29 10:19:36;;;;;;;12.05;11.35;;;;;;;-3.49;98.72;100450.50;4972100;28;20122;-71
2021/12/29 10:22:02;;;;;;;12.45;11.68;;;;;;;-3.16;98.22;100438.19;4974922;28;20027;-70
2021/12/29 10:24:28;;;;;;;11.70;11.10;;;;;;;-3.20;98.53;100441.88;4974938;28;20029;-69
2021/12/29 10:26:56;;;;;;;11.00;10.45;;;;;;;-2.97;97.74;100439.69;4975384;28;20027;-70
2021/12/29 10:29:22;;;;;;;11.43;10.82;;;;;;;-3.13;97.22;100431.97;4975407;28;20230;-71
2021/12/29 10:31:57;;;;;;;13.30;12.40;;;;;;;-3.01;97.78;100433.00;4975093;28;20114;-71
2021/12/29 10:34:26;;;;;;;11.73;11.02;;;;;;;-2.98;96.56;100427.66;4975972;28;20059;-68
2021/12/29 10:36:58;;;;;;;11.63;10.95;;;;;;;-2.85;95.80;100426.84;4974738;28;20035;-70
2021/12/29 10:39:28;;;;;;;11.57;10.90;;;;;;;-2.80;96.05;100432.56;4974145;28;20027;-70
2021/12/29 10:42:02;;;;;;;11.77;11.07;;;;;;;-3.26;98.07;100425.84;4975017;28;20034;-70
2021/12/29 10:44:47;;;;;;;13.27;12.45;;;;;;;-2.92;97.30;100428.13;4974309;28;20288;-69
2021/12/29 10:47:27;;;;;;;11.40;10.75;;;;;;;-2.80;96.72;100416.16;4960061;28;20027;-70
2021/12/29 10:50:01;;;;;;;10.98;10.38;;;;;;;-3.01;97.32;100420.03;4975141;28;20038;-68
2021/12/29 10:52:38;;;;;;;10.82;10.23;;;;;;;-2.93;97.50;100417.84;4962691;28;20034;-70
2021/12/29 10:55:08;;;;;;;10.93;10.32;;;;;;;-2.98;97.70;100414.66;4975108;28;20117;-68
2021/12/29 10:57:34;;;;;;;10.70;10.20;;;;;;;-3.25;98.97;100417.13;4974835;28;20078;-71
2021/12/29 11:00:02;;;;;;;10.82;10.27;;;;;;;-3.20;99.57;100412.50;4974295;28;20149;-68
2021/12/29 11:02:29;;;;;;;10.90;10.30;;;;;;;-3.33;99.58;100423.59;4974869;28;20109;-71
2021/12/29 11:05:01;;;;;;;11.40;10.77;;;;;;;-3.49;100.00;100420.22;4974117;28;20114;-68
2021/12/29 11:07:29;;;;;;;11.23;10.63;;;;;;;-3.39;100.00;100410.13;4975533;28;20109;-71
2021/12/29 11:09:55;;;;;;;11.55;10.90;;;;;;;-3.12;100.00;100415.50;4975319;28;20110;-73